Apiliotis — SYVY — position and weather

sailwx.info

Track history (hours):
 
Tides and Currents Weather Stations Pressure Air Temp Water Temp Dewpoint Dewpoint Depression Visibility Wind Speed Wind Dir Waves Ship Positions

Apiliotis

Last reported at 2014-Sep-14 10:23 UTC. Time now 2014-Sep-17 15:38 UTC.
Position N 38°36' E 025°51'.

Length 79 m; draft 4.5 m.

Type: Ship. MMSI: 240438000.

Date/timePositionNaut miles runAvg speedWind from/ knotsBaromVisibWave heightAir tempDewpointWater temp
2014-Sep-14 10:23N 38°36' E 025°51'8 9.6
2014-Sep-14 09:33N 38°28' E 025°50'11 1.7
2014-Sep-14 03:12N 38°18' E 025°52'42 3.5
2014-Sep-13 15:07N 37°38' E 026°11'711.3
2014-Sep-13 14:31N 37°42' E 026°19'5 5.1
2014-Sep-13 13:33N 37°37' E 026°18'0 0.3
2014-Sep-13 12:33N 37°37' E 026°18'0 0.3
2014-Sep-13 11:33N 37°37' E 026°18'0 0.0
2014-Sep-13 10:33N 37°37' E 026°18'8 7.6
2014-Sep-13 09:33N 37°41' E 026°26'1111.4
2014-Sep-13 08:33N 37°48' E 026°37'6 0.6
2014-Sep-12 21:33N 37°50' E 026°45'1211.9
2014-Sep-12 20:33N 37°44' E 026°32'1212.0
2014-Sep-12 19:33N 37°37' E 026°20'1211.9
2014-Sep-12 18:33N 37°30' E 026°07'1111.4
2014-Sep-12 17:33N 37°25' E 025°55'1111.1
2014-Sep-12 16:33N 37°21' E 025°42'1110.8
2014-Sep-12 15:33N 37°16' E 025°29'1110.8
2014-Sep-12 14:33N 37°12' E 025°17'9 9.1
2014-Sep-12 13:33N 37°05' E 025°09'0 0.1
2014-Sep-12 12:32N 37°05' E 025°09'0 0.0
2014-Sep-12 11:33N 37°05' E 025°09'0 0.0
2014-Sep-12 10:33N 37°05' E 025°09'2 1.9
2014-Sep-12 09:33N 37°07' E 025°08'10 9.8
2014-Sep-12 08:33N 37°08' E 025°20'2 2.0
2014-Sep-12 07:33N 37°06' E 025°22'0 0.1
2014-Sep-12 06:33N 37°06' E 025°22'0 0.4
2014-Sep-12 05:33N 37°06' E 025°22'0 0.0
2014-Sep-12 04:33N 37°06' E 025°22'1 0.5
2014-Sep-12 03:33N 37°06' E 025°22'0 0.0
2014-Sep-12 02:33N 37°06' E 025°22'0 0.0
2014-Sep-12 01:33N 37°06' E 025°22'0 0.0
2014-Sep-12 00:33N 37°06' E 025°22'0 0.0
2014-Sep-11 23:33N 37°06' E 025°22'0 0.0
2014-Sep-11 22:33N 37°06' E 025°22'0 0.0
2014-Sep-11 21:33N 37°06' E 025°22'0 0.0
2014-Sep-11 20:33N 37°06' E 025°22'0 0.0
2014-Sep-11 19:33N 37°06' E 025°22'0 0.0
2014-Sep-11 18:33N 37°06' E 025°22'0 0.0
2014-Sep-11 17:33N 37°06' E 025°22'0 0.0
2014-Sep-11 16:33N 37°06' E 025°22'0 0.0
2014-Sep-11 15:33N 37°06' E 025°22'0 0.2
2014-Sep-11 14:33N 37°06' E 025°22'1010.3
2014-Sep-11 13:33N 37°16' E 025°18'1110.5
2014-Sep-11 12:33N 37°27' E 025°17'2 2.2
2014-Sep-11 11:33N 37°28' E 025°20'0 0.0
2014-Sep-11 10:33N 37°28' E 025°20'4 4.0
2014-Sep-11 09:33N 37°29' E 025°15'5 5.5
2014-Sep-11 08:33N 37°32' E 025°09'0 0.0
2014-Sep-11 07:33N 37°32' E 025°09'0 0.0
2014-Sep-11 06:33N 37°32' E 025°09'0 0.0
2014-Sep-11 05:33N 37°32' E 025°09'0 0.0
2014-Sep-11 04:33N 37°32' E 025°09'1 0.8
2014-Sep-11 03:33N 37°33' E 025°08'0 0.0
2014-Sep-11 02:33N 37°33' E 025°08'0 0.0
2014-Sep-11 01:33N 37°33' E 025°08'0 0.0
2014-Sep-11 00:33N 37°33' E 025°08'0 0.0
2014-Sep-10 23:33N 37°33' E 025°08'0 0.1
2014-Sep-10 22:33N 37°33' E 025°09'0 0.1
2014-Sep-10 21:33N 37°33' E 025°08'2 1.9
2014-Sep-10 20:33N 37°32' E 025°06'1311.7
2014-Sep-10 19:25N 37°41' E 024°54'  
2014-Sep-06 02:26N 38°15' E 025°51'1111.8
2014-Sep-06 01:33N 38°05' E 025°47'1211.8
2014-Sep-06 00:32N 37°53' E 025°42'1211.6
2014-Sep-05 23:33N 37°42' E 025°38'1111.5
2014-Sep-05 22:34N 37°31' E 025°34'1111.3
2014-Sep-05 21:34N 37°22' E 025°26'1211.7
2014-Sep-05 20:33N 37°14' E 025°16'1010.0
2014-Sep-05 19:33N 37°05' E 025°08'0 0.2
2014-Sep-05 18:32N 37°06' E 025°08'0 0.0
2014-Sep-05 17:32N 37°06' E 025°08'0 0.5
2014-Sep-05 16:30N 37°05' E 025°09'0 0.5
2014-Sep-05 15:34N 37°06' E 025°08'0 0.0
2014-Sep-05 14:33N 37°06' E 025°08'0 0.5
2014-Sep-05 13:32N 37°05' E 025°09'0 0.0
2014-Sep-05 12:33N 37°05' E 025°09'0 0.0
2014-Sep-05 11:33N 37°05' E 025°09'1 1.4
2014-Sep-05 10:33N 37°06' E 025°08'1010.3
2014-Sep-05 09:34N 37°09' E 025°20'3 3.0
2014-Sep-05 08:34N 37°06' E 025°22'0 0.0
2014-Sep-05 07:34N 37°06' E 025°22'0 0.0
2014-Sep-05 06:34N 37°06' E 025°22'0 0.4
2014-Sep-05 05:34N 37°06' E 025°22'0 0.0
2014-Sep-05 04:33N 37°06' E 025°22'1 0.8
2014-Sep-05 03:34N 37°06' E 025°22'0 0.0
2014-Sep-05 02:34N 37°06' E 025°22'0 0.0
2014-Sep-05 01:34N 37°06' E 025°22'0 0.0
2014-Sep-05 00:34N 37°06' E 025°22'0 0.0
2014-Sep-04 23:33N 37°06' E 025°22'0 0.0
2014-Sep-04 22:33N 37°06' E 025°22'0 0.0
2014-Sep-04 21:34N 37°06' E 025°22'6 5.5
2014-Sep-04 20:34N 37°11' E 025°20'1211.4
2014-Sep-04 19:33N 37°23' E 025°17'6 5.6
2014-Sep-04 18:34N 37°28' E 025°20'0 0.0
2014-Sep-04 17:33N 37°28' E 025°20'0 0.0
2014-Sep-04 16:34N 37°28' E 025°20'0 0.0
2014-Sep-04 15:34N 37°28' E 025°20'0 0.2
2014-Sep-04 14:34N 37°28' E 025°19'8 8.5
2014-Sep-04 13:34N 37°32' E 025°28'1211.4
2014-Sep-04 12:33N 37°36' E 025°42'1211.5
2014-Sep-04 11:30N 37°39' E 025°57'  
Track history (hours):
 
Tides and Currents Weather Stations Pressure Air Temp Water Temp Dewpoint Dewpoint Depression Visibility Wind Speed Wind Dir Waves Ship Positions

Apiliotis

Last reported at 2014-Sep-14 10:23 UTC. Time now 2014-Sep-17 15:38 UTC.
Position N 38°36' E 025°51'.

Length 79 m; draft 4.5 m.

Type: Ship. MMSI: 240438000.

Date/timePositionNaut miles runAvg speedWind from/ knotsBaromVisibWave heightAir tempDewpointWater temp
2014-Sep-14 10:23N 38°36' E 025°51'8 9.6
2014-Sep-14 09:33N 38°28' E 025°50'11 1.7
2014-Sep-14 03:12N 38°18' E 025°52'42 3.5
2014-Sep-13 15:07N 37°38' E 026°11'711.3
2014-Sep-13 14:31N 37°42' E 026°19'5 5.1
2014-Sep-13 13:33N 37°37' E 026°18'0 0.3
2014-Sep-13 12:33N 37°37' E 026°18'0 0.3
2014-Sep-13 11:33N 37°37' E 026°18'0 0.0
2014-Sep-13 10:33N 37°37' E 026°18'8 7.6
2014-Sep-13 09:33N 37°41' E 026°26'1111.4
2014-Sep-13 08:33N 37°48' E 026°37'6 0.6
2014-Sep-12 21:33N 37°50' E 026°45'1211.9
2014-Sep-12 20:33N 37°44' E 026°32'1212.0
2014-Sep-12 19:33N 37°37' E 026°20'1211.9
2014-Sep-12 18:33N 37°30' E 026°07'1111.4
2014-Sep-12 17:33N 37°25' E 025°55'1111.1
2014-Sep-12 16:33N 37°21' E 025°42'1110.8
2014-Sep-12 15:33N 37°16' E 025°29'1110.8
2014-Sep-12 14:33N 37°12' E 025°17'9 9.1
2014-Sep-12 13:33N 37°05' E 025°09'0 0.1
2014-Sep-12 12:32N 37°05' E 025°09'0 0.0
2014-Sep-12 11:33N 37°05' E 025°09'0 0.0
2014-Sep-12 10:33N 37°05' E 025°09'2 1.9
2014-Sep-12 09:33N 37°07' E 025°08'10 9.8
2014-Sep-12 08:33N 37°08' E 025°20'2 2.0
2014-Sep-12 07:33N 37°06' E 025°22'0 0.1
2014-Sep-12 06:33N 37°06' E 025°22'0 0.4
2014-Sep-12 05:33N 37°06' E 025°22'0 0.0
2014-Sep-12 04:33N 37°06' E 025°22'1 0.5
2014-Sep-12 03:33N 37°06' E 025°22'0 0.0
2014-Sep-12 02:33N 37°06' E 025°22'0 0.0
2014-Sep-12 01:33N 37°06' E 025°22'0 0.0
2014-Sep-12 00:33N 37°06' E 025°22'0 0.0
2014-Sep-11 23:33N 37°06' E 025°22'0 0.0
2014-Sep-11 22:33N 37°06' E 025°22'0 0.0
2014-Sep-11 21:33N 37°06' E 025°22'0 0.0
2014-Sep-11 20:33N 37°06' E 025°22'0 0.0
2014-Sep-11 19:33N 37°06' E 025°22'0 0.0
2014-Sep-11 18:33N 37°06' E 025°22'0 0.0
2014-Sep-11 17:33N 37°06' E 025°22'0 0.0
2014-Sep-11 16:33N 37°06' E 025°22'0 0.0
2014-Sep-11 15:33N 37°06' E 025°22'0 0.2
2014-Sep-11 14:33N 37°06' E 025°22'1010.3
2014-Sep-11 13:33N 37°16' E 025°18'1110.5
2014-Sep-11 12:33N 37°27' E 025°17'2 2.2
2014-Sep-11 11:33N 37°28' E 025°20'0 0.0
2014-Sep-11 10:33N 37°28' E 025°20'4 4.0
2014-Sep-11 09:33N 37°29' E 025°15'5 5.5
2014-Sep-11 08:33N 37°32' E 025°09'0 0.0
2014-Sep-11 07:33N 37°32' E 025°09'0 0.0
2014-Sep-11 06:33N 37°32' E 025°09'0 0.0
2014-Sep-11 05:33N 37°32' E 025°09'0 0.0
2014-Sep-11 04:33N 37°32' E 025°09'1 0.8
2014-Sep-11 03:33N 37°33' E 025°08'0 0.0
2014-Sep-11 02:33N 37°33' E 025°08'0 0.0
2014-Sep-11 01:33N 37°33' E 025°08'0 0.0
2014-Sep-11 00:33N 37°33' E 025°08'0 0.0
2014-Sep-10 23:33N 37°33' E 025°08'0 0.1
2014-Sep-10 22:33N 37°33' E 025°09'0 0.1
2014-Sep-10 21:33N 37°33' E 025°08'2 1.9
2014-Sep-10 20:33N 37°32' E 025°06'1311.7
2014-Sep-10 19:25N 37°41' E 024°54'  
2014-Sep-06 02:26N 38°15' E 025°51'1111.8
2014-Sep-06 01:33N 38°05' E 025°47'1211.8
2014-Sep-06 00:32N 37°53' E 025°42'1211.6
2014-Sep-05 23:33N 37°42' E 025°38'1111.5
2014-Sep-05 22:34N 37°31' E 025°34'1111.3
2014-Sep-05 21:34N 37°22' E 025°26'1211.7
2014-Sep-05 20:33N 37°14' E 025°16'1010.0
2014-Sep-05 19:33N 37°05' E 025°08'0 0.2
2014-Sep-05 18:32N 37°06' E 025°08'0 0.0
2014-Sep-05 17:32N 37°06' E 025°08'0 0.5
2014-Sep-05 16:30N 37°05' E 025°09'0 0.5
2014-Sep-05 15:34N 37°06' E 025°08'0 0.0
2014-Sep-05 14:33N 37°06' E 025°08'0 0.5
2014-Sep-05 13:32N 37°05' E 025°09'0 0.0
2014-Sep-05 12:33N 37°05' E 025°09'0 0.0
2014-Sep-05 11:33N 37°05' E 025°09'1 1.4
2014-Sep-05 10:33N 37°06' E 025°08'1010.3
2014-Sep-05 09:34N 37°09' E 025°20'3 3.0
2014-Sep-05 08:34N 37°06' E 025°22'0 0.0
2014-Sep-05 07:34N 37°06' E 025°22'0 0.0
2014-Sep-05 06:34N 37°06' E 025°22'0 0.4
2014-Sep-05 05:34N 37°06' E 025°22'0 0.0
2014-Sep-05 04:33N 37°06' E 025°22'1 0.8
2014-Sep-05 03:34N 37°06' E 025°22'0 0.0
2014-Sep-05 02:34N 37°06' E 025°22'0 0.0
2014-Sep-05 01:34N 37°06' E 025°22'0 0.0
2014-Sep-05 00:34N 37°06' E 025°22'0 0.0
2014-Sep-04 23:33N 37°06' E 025°22'0 0.0
2014-Sep-04 22:33N 37°06' E 025°22'0 0.0
2014-Sep-04 21:34N 37°06' E 025°22'6 5.5
2014-Sep-04 20:34N 37°11' E 025°20'1211.4
2014-Sep-04 19:33N 37°23' E 025°17'6 5.6
2014-Sep-04 18:34N 37°28' E 025°20'0 0.0
2014-Sep-04 17:33N 37°28' E 025°20'0 0.0
2014-Sep-04 16:34N 37°28' E 025°20'0 0.0
2014-Sep-04 15:34N 37°28' E 025°20'0 0.2
2014-Sep-04 14:34N 37°28' E 025°19'8 8.5
2014-Sep-04 13:34N 37°32' E 025°28'1211.4
2014-Sep-04 12:33N 37°36' E 025°42'1211.5
2014-Sep-04 11:30N 37°39' E 025°57'  

Dump ship's entire track history